sensor_id;sensor_type;location;lat;lon;timestamp;P1;durP1;ratioP1;P2;durP2;ratioP2
78854;SDS011;68206;59.956;30.234;2023-05-14T00:02:01;24.25;;;14.20;;
78854;SDS011;68206;59.956;30.234;2023-05-14T00:04:30;31.38;;;14.65;;
78854;SDS011;68206;59.956;30.234;2023-05-14T00:06:58;29.90;;;14.50;;
78854;SDS011;68206;59.956;30.234;2023-05-14T00:09:27;23.83;;;13.07;;
78854;SDS011;68206;59.956;30.234;2023-05-14T00:11:56;24.75;;;13.63;;
78854;SDS011;68206;59.956;30.234;2023-05-14T00:14:24;31.00;;;14.38;;
78854;SDS011;68206;59.956;30.234;2023-05-14T00:16:52;28.02;;;14.05;;
78854;SDS011;68206;59.956;30.234;2023-05-14T00:19:20;21.08;;;11.02;;
78854;SDS011;68206;59.956;30.234;2023-05-14T00:21:48;20.15;;;10.88;;
78854;SDS011;68206;59.956;30.234;2023-05-14T00:24:16;24.85;;;11.65;;
78854;SDS011;68206;59.956;30.234;2023-05-14T00:26:45;28.95;;;13.77;;
78854;SDS011;68206;59.956;30.234;2023-05-14T00:29:14;26.40;;;11.90;;
78854;SDS011;68206;59.956;30.234;2023-05-14T00:31:42;23.40;;;12.10;;
78854;SDS011;68206;59.956;30.234;2023-05-14T00:34:10;20.00;;;11.38;;
78854;SDS011;68206;59.956;30.234;2023-05-14T00:36:38;26.85;;;12.15;;
78854;SDS011;68206;59.956;30.234;2023-05-14T00:39:06;22.67;;;11.15;;
78854;SDS011;68206;59.956;30.234;2023-05-14T00:41:35;23.80;;;11.25;;
78854;SDS011;68206;59.956;30.234;2023-05-14T00:44:04;29.00;;;13.65;;
78854;SDS011;68206;59.956;30.234;2023-05-14T00:46:32;27.48;;;12.65;;
78854;SDS011;68206;59.956;30.234;2023-05-14T00:49:00;29.10;;;12.93;;
78854;SDS011;68206;59.956;30.234;2023-05-14T00:51:28;20.52;;;12.05;;
78854;SDS011;68206;59.956;30.234;2023-05-14T00:53:57;23.67;;;11.15;;
78854;SDS011;68206;59.956;30.234;2023-05-14T00:56:25;33.72;;;11.80;;
78854;SDS011;68206;59.956;30.234;2023-05-14T00:58:54;23.60;;;11.70;;
78854;SDS011;68206;59.956;30.234;2023-05-14T01:01:24;33.88;;;10.85;;
78854;SDS011;68206;59.956;30.234;2023-05-14T01:03:54;24.67;;;9.60;;
78854;SDS011;68206;59.956;30.234;2023-05-14T01:06:25;17.60;;;9.05;;
78854;SDS011;68206;59.956;30.234;2023-05-14T01:09:02;19.80;;;8.63;;
78854;SDS011;68206;59.956;30.234;2023-05-14T01:11:37;21.00;;;8.48;;
78854;SDS011;68206;59.956;30.234;2023-05-14T01:14:11;19.67;;;8.05;;
78854;SDS011;68206;59.956;30.234;2023-05-14T01:16:46;22.77;;;9.15;;
78854;SDS011;68206;59.956;30.234;2023-05-14T01:19:20;23.45;;;10.30;;
78854;SDS011;68206;59.956;30.234;2023-05-14T01:21:54;22.48;;;10.27;;
78854;SDS011;68206;59.956;30.234;2023-05-14T01:24:22;26.00;;;9.70;;
78854;SDS011;68206;59.956;30.234;2023-05-14T01:26:50;15.63;;;8.23;;
78854;SDS011;68206;59.956;30.234;2023-05-14T01:29:21;18.35;;;8.35;;
78854;SDS011;68206;59.956;30.234;2023-05-14T01:31:49;12.35;;;6.32;;
78854;SDS011;68206;59.956;30.234;2023-05-14T01:34:21;12.30;;;5.20;;
78854;SDS011;68206;59.956;30.234;2023-05-14T01:36:51;12.50;;;5.45;;
78854;SDS011;68206;59.956;30.234;2023-05-14T01:39:21;13.00;;;6.70;;
78854;SDS011;68206;59.956;30.234;2023-05-14T01:41:50;21.75;;;6.43;;
78854;SDS011;68206;59.956;30.234;2023-05-14T01:44:19;17.92;;;6.85;;
78854;SDS011;68206;59.956;30.234;2023-05-14T01:46:48;17.98;;;5.80;;
78854;SDS011;68206;59.956;30.234;2023-05-14T01:49:16;16.58;;;5.65;;
78854;SDS011;68206;59.956;30.234;2023-05-14T01:51:45;16.52;;;5.32;;
78854;SDS011;68206;59.956;30.234;2023-05-14T01:54:13;12.98;;;4.65;;
78854;SDS011;68206;59.956;30.234;2023-05-14T01:56:42;11.20;;;5.38;;
78854;SDS011;68206;59.956;30.234;2023-05-14T01:59:10;13.50;;;4.97;;
78854;SDS011;68206;59.956;30.234;2023-05-14T02:01:38;16.63;;;4.82;;
78854;SDS011;68206;59.956;30.234;2023-05-14T02:04:07;10.27;;;4.25;;
78854;SDS011;68206;59.956;30.234;2023-05-14T02:06:35;12.25;;;3.65;;
78854;SDS011;68206;59.956;30.234;2023-05-14T02:09:03;13.90;;;4.65;;
78854;SDS011;68206;59.956;30.234;2023-05-14T02:11:32;8.82;;;4.22;;
78854;SDS011;68206;59.956;30.234;2023-05-14T02:14:02;19.85;;;4.78;;
78854;SDS011;68206;59.956;30.234;2023-05-14T02:16:30;20.42;;;7.32;;
78854;SDS011;68206;59.956;30.234;2023-05-14T02:18:58;20.65;;;8.25;;
78854;SDS011;68206;59.956;30.234;2023-05-14T02:21:46;20.52;;;7.10;;
78854;SDS011;68206;59.956;30.234;2023-05-14T02:24:15;11.85;;;4.88;;
78854;SDS011;68206;59.956;30.234;2023-05-14T02:26:43;12.52;;;4.75;;
78854;SDS011;68206;59.956;30.234;2023-05-14T02:29:12;10.77;;;4.53;;
78854;SDS011;68206;59.956;30.234;2023-05-14T02:31:41;10.55;;;4.20;;
78854;SDS011;68206;59.956;30.234;2023-05-14T02:34:09;13.45;;;5.20;;
78854;SDS011;68206;59.956;30.234;2023-05-14T02:36:37;10.38;;;4.85;;
78854;SDS011;68206;59.956;30.234;2023-05-14T02:39:05;11.65;;;5.18;;
78854;SDS011;68206;59.956;30.234;2023-05-14T02:41:33;11.38;;;5.85;;
78854;SDS011;68206;59.956;30.234;2023-05-14T02:44:01;11.85;;;5.30;;
78854;SDS011;68206;59.956;30.234;2023-05-14T02:46:31;12.70;;;4.72;;
78854;SDS011;68206;59.956;30.234;2023-05-14T02:49:00;9.63;;;4.57;;
78854;SDS011;68206;59.956;30.234;2023-05-14T02:51:28;14.80;;;4.90;;
78854;SDS011;68206;59.956;30.234;2023-05-14T02:53:56;11.93;;;5.03;;
78854;SDS011;68206;59.956;30.234;2023-05-14T02:56:24;10.43;;;5.15;;
78854;SDS011;68206;59.956;30.234;2023-05-14T02:58:53;11.70;;;5.18;;
78854;SDS011;68206;59.956;30.234;2023-05-14T03:01:21;12.13;;;5.32;;
78854;SDS011;68206;59.956;30.234;2023-05-14T03:03:51;15.38;;;4.97;;
78854;SDS011;68206;59.956;30.234;2023-05-14T03:06:19;14.95;;;5.13;;
78854;SDS011;68206;59.956;30.234;2023-05-14T03:08:47;13.90;;;4.95;;
78854;SDS011;68206;59.956;30.234;2023-05-14T03:11:16;15.40;;;5.20;;
78854;SDS011;68206;59.956;30.234;2023-05-14T03:13:44;10.63;;;4.88;;
78854;SDS011;68206;59.956;30.234;2023-05-14T03:16:12;11.90;;;5.38;;
78854;SDS011;68206;59.956;30.234;2023-05-14T03:18:40;14.05;;;4.68;;
78854;SDS011;68206;59.956;30.234;2023-05-14T03:21:09;16.55;;;4.95;;
78854;SDS011;68206;59.956;30.234;2023-05-14T03:23:37;10.07;;;4.93;;
78854;SDS011;68206;59.956;30.234;2023-05-14T03:26:06;10.27;;;5.22;;
78854;SDS011;68206;59.956;30.234;2023-05-14T03:28:34;11.35;;;4.97;;
78854;SDS011;68206;59.956;30.234;2023-05-14T03:31:02;13.23;;;5.38;;
78854;SDS011;68206;59.956;30.234;2023-05-14T03:33:30;11.65;;;4.97;;
78854;SDS011;68206;59.956;30.234;2023-05-14T03:35:58;25.10;;;6.60;;
78854;SDS011;68206;59.956;30.234;2023-05-14T03:38:27;9.60;;;4.82;;
78854;SDS011;68206;59.956;30.234;2023-05-14T03:40:56;13.00;;;4.90;;
78854;SDS011;68206;59.956;30.234;2023-05-14T03:43:24;11.45;;;5.00;;
78854;SDS011;68206;59.956;30.234;2023-05-14T03:45:53;14.32;;;5.10;;
78854;SDS011;68206;59.956;30.234;2023-05-14T03:48:21;13.00;;;6.00;;
78854;SDS011;68206;59.956;30.234;2023-05-14T03:50:49;14.45;;;6.05;;
78854;SDS011;68206;59.956;30.234;2023-05-14T03:53:18;15.85;;;5.50;;
78854;SDS011;68206;59.956;30.234;2023-05-14T03:55:47;15.40;;;5.57;;
78854;SDS011;68206;59.956;30.234;2023-05-14T03:58:15;10.05;;;4.80;;
78854;SDS011;68206;59.956;30.234;2023-05-14T04:00:43;12.23;;;5.10;;
78854;SDS011;68206;59.956;30.234;2023-05-14T04:03:11;10.75;;;4.68;;
78854;SDS011;68206;59.956;30.234;2023-05-14T04:05:39;8.65;;;4.60;;
78854;SDS011;68206;59.956;30.234;2023-05-14T04:08:07;12.23;;;4.38;;
78854;SDS011;68206;59.956;30.234;2023-05-14T04:10:36;3.90;;;2.78;;
78854;SDS011;68206;59.956;30.234;2023-05-14T04:13:05;9.85;;;4.45;;
78854;SDS011;68206;59.956;30.234;2023-05-14T04:15:37;6.47;;;3.90;;
78854;SDS011;68206;59.956;30.234;2023-05-14T04:18:06;6.78;;;3.58;;
78854;SDS011;68206;59.956;30.234;2023-05-14T04:20:34;9.05;;;3.83;;
78854;SDS011;68206;59.956;30.234;2023-05-14T04:23:03;5.45;;;3.17;;
78854;SDS011;68206;59.956;30.234;2023-05-14T04:25:32;7.38;;;3.45;;
78854;SDS011;68206;59.956;30.234;2023-05-14T04:28:00;4.22;;;2.88;;
78854;SDS011;68206;59.956;30.234;2023-05-14T04:30:29;7.72;;;3.25;;
78854;SDS011;68206;59.956;30.234;2023-05-14T04:32:57;12.13;;;3.38;;
78854;SDS011;68206;59.956;30.234;2023-05-14T04:35:25;5.85;;;3.20;;
78854;SDS011;68206;59.956;30.234;2023-05-14T04:37:53;8.63;;;3.10;;
78854;SDS011;68206;59.956;30.234;2023-05-14T04:40:22;5.20;;;2.60;;
78854;SDS011;68206;59.956;30.234;2023-05-14T04:42:50;4.75;;;2.80;;
78854;SDS011;68206;59.956;30.234;2023-05-14T04:45:18;6.32;;;2.83;;
78854;SDS011;68206;59.956;30.234;2023-05-14T04:47:48;6.55;;;3.00;;
78854;SDS011;68206;59.956;30.234;2023-05-14T04:50:17;4.63;;;2.53;;
78854;SDS011;68206;59.956;30.234;2023-05-14T04:52:45;7.30;;;2.72;;
78854;SDS011;68206;59.956;30.234;2023-05-14T04:55:13;5.40;;;2.80;;
78854;SDS011;68206;59.956;30.234;2023-05-14T04:57:41;6.22;;;2.55;;
78854;SDS011;68206;59.956;30.234;2023-05-14T05:00:09;5.68;;;2.40;;
78854;SDS011;68206;59.956;30.234;2023-05-14T05:02:38;8.02;;;2.60;;
78854;SDS011;68206;59.956;30.234;2023-05-14T05:05:08;5.40;;;2.72;;
78854;SDS011;68206;59.956;30.234;2023-05-14T05:07:37;4.18;;;2.17;;
78854;SDS011;68206;59.956;30.234;2023-05-14T05:10:05;6.63;;;2.53;;
78854;SDS011;68206;59.956;30.234;2023-05-14T05:12:34;5.47;;;2.40;;
78854;SDS011;68206;59.956;30.234;2023-05-14T05:15:03;4.38;;;2.40;;
78854;SDS011;68206;59.956;30.234;2023-05-14T05:17:32;6.35;;;2.50;;
78854;SDS011;68206;59.956;30.234;2023-05-14T05:20:00;4.47;;;2.40;;
78854;SDS011;68206;59.956;30.234;2023-05-14T05:22:30;4.60;;;2.20;;
78854;SDS011;68206;59.956;30.234;2023-05-14T05:24:58;7.95;;;2.55;;
78854;SDS011;68206;59.956;30.234;2023-05-14T05:27:28;7.00;;;2.53;;
78854;SDS011;68206;59.956;30.234;2023-05-14T05:29:56;8.20;;;2.30;;
78854;SDS011;68206;59.956;30.234;2023-05-14T05:32:24;5.10;;;2.40;;
78854;SDS011;68206;59.956;30.234;2023-05-14T05:34:53;2.58;;;1.77;;
78854;SDS011;68206;59.956;30.234;2023-05-14T05:37:21;7.28;;;2.10;;
78854;SDS011;68206;59.956;30.234;2023-05-14T05:39:51;5.15;;;2.30;;
78854;SDS011;68206;59.956;30.234;2023-05-14T05:42:20;4.70;;;2.22;;
78854;SDS011;68206;59.956;30.234;2023-05-14T05:44:48;7.75;;;2.30;;
78854;SDS011;68206;59.956;30.234;2023-05-14T05:47:16;5.90;;;2.20;;
78854;SDS011;68206;59.956;30.234;2023-05-14T05:49:44;3.47;;;2.08;;
78854;SDS011;68206;59.956;30.234;2023-05-14T05:52:12;3.67;;;2.22;;
78854;SDS011;68206;59.956;30.234;2023-05-14T05:54:40;7.45;;;2.30;;
78854;SDS011;68206;59.956;30.234;2023-05-14T05:57:09;6.47;;;2.60;;
78854;SDS011;68206;59.956;30.234;2023-05-14T05:59:37;5.28;;;2.00;;
78854;SDS011;68206;59.956;30.234;2023-05-14T06:02:06;5.45;;;2.20;;
78854;SDS011;68206;59.956;30.234;2023-05-14T06:04:34;4.85;;;2.60;;
78854;SDS011;68206;59.956;30.234;2023-05-14T06:07:02;6.30;;;2.20;;
78854;SDS011;68206;59.956;30.234;2023-05-14T06:09:30;7.13;;;2.65;;
78854;SDS011;68206;59.956;30.234;2023-05-14T06:11:58;8.60;;;2.40;;
78854;SDS011;68206;59.956;30.234;2023-05-14T06:14:28;6.20;;;2.75;;
78854;SDS011;68206;59.956;30.234;2023-05-14T06:16:56;5.93;;;2.50;;
78854;SDS011;68206;59.956;30.234;2023-05-14T06:19:24;4.05;;;2.40;;
78854;SDS011;68206;59.956;30.234;2023-05-14T06:21:52;11.20;;;2.47;;
78854;SDS011;68206;59.956;30.234;2023-05-14T06:24:20;5.15;;;2.17;;
78854;SDS011;68206;59.956;30.234;2023-05-14T06:26:48;7.70;;;2.30;;
78854;SDS011;68206;59.956;30.234;2023-05-14T06:29:16;4.15;;;2.50;;
78854;SDS011;68206;59.956;30.234;2023-05-14T06:31:45;7.65;;;2.85;;
78854;SDS011;68206;59.956;30.234;2023-05-14T06:34:14;7.38;;;2.47;;
78854;SDS011;68206;59.956;30.234;2023-05-14T06:36:42;5.93;;;2.78;;
78854;SDS011;68206;59.956;30.234;2023-05-14T06:39:10;5.15;;;2.60;;
78854;SDS011;68206;59.956;30.234;2023-05-14T06:41:38;5.57;;;2.90;;
78854;SDS011;68206;59.956;30.234;2023-05-14T06:44:08;6.65;;;3.20;;
78854;SDS011;68206;59.956;30.234;2023-05-14T06:46:36;7.85;;;3.25;;
78854;SDS011;68206;59.956;30.234;2023-05-14T06:49:05;7.90;;;3.03;;
78854;SDS011;68206;59.956;30.234;2023-05-14T06:51:34;5.40;;;2.50;;
78854;SDS011;68206;59.956;30.234;2023-05-14T06:54:02;14.82;;;3.72;;
78854;SDS011;68206;59.956;30.234;2023-05-14T06:56:30;7.80;;;3.08;;
78854;SDS011;68206;59.956;30.234;2023-05-14T06:58:58;7.47;;;3.85;;
78854;SDS011;68206;59.956;30.234;2023-05-14T07:01:26;11.50;;;3.10;;
78854;SDS011;68206;59.956;30.234;2023-05-14T07:03:55;9.07;;;3.20;;
78854;SDS011;68206;59.956;30.234;2023-05-14T07:06:25;9.10;;;3.22;;
78854;SDS011;68206;59.956;30.234;2023-05-14T07:08:53;12.70;;;3.63;;
78854;SDS011;68206;59.956;30.234;2023-05-14T07:11:21;11.27;;;2.92;;
78854;SDS011;68206;59.956;30.234;2023-05-14T07:13:49;12.02;;;2.85;;
78854;SDS011;68206;59.956;30.234;2023-05-14T07:16:17;5.57;;;2.95;;
78854;SDS011;68206;59.956;30.234;2023-05-14T07:18:46;10.48;;;3.47;;
78854;SDS011;68206;59.956;30.234;2023-05-14T07:21:14;9.27;;;3.28;;
78854;SDS011;68206;59.956;30.234;2023-05-14T07:23:43;9.10;;;3.50;;
78854;SDS011;68206;59.956;30.234;2023-05-14T07:26:11;7.75;;;2.92;;
78854;SDS011;68206;59.956;30.234;2023-05-14T07:28:39;8.73;;;3.00;;
78854;SDS011;68206;59.956;30.234;2023-05-14T07:31:08;11.32;;;3.17;;
78854;SDS011;68206;59.956;30.234;2023-05-14T07:33:36;6.93;;;3.10;;
78854;SDS011;68206;59.956;30.234;2023-05-14T07:36:05;7.03;;;3.15;;
78854;SDS011;68206;59.956;30.234;2023-05-14T07:38:34;10.55;;;3.42;;
78854;SDS011;68206;59.956;30.234;2023-05-14T07:41:04;7.00;;;2.75;;
78854;SDS011;68206;59.956;30.234;2023-05-14T07:43:32;9.40;;;3.13;;
78854;SDS011;68206;59.956;30.234;2023-05-14T07:46:00;8.90;;;3.38;;
78854;SDS011;68206;59.956;30.234;2023-05-14T07:48:28;10.45;;;3.65;;
78854;SDS011;68206;59.956;30.234;2023-05-14T07:50:56;9.40;;;3.20;;
78854;SDS011;68206;59.956;30.234;2023-05-14T07:53:24;12.10;;;4.45;;
78854;SDS011;68206;59.956;30.234;2023-05-14T07:55:52;13.13;;;3.90;;
78854;SDS011;68206;59.956;30.234;2023-05-14T07:58:21;14.05;;;3.97;;
78854;SDS011;68206;59.956;30.234;2023-05-14T08:00:50;8.35;;;3.80;;
78854;SDS011;68206;59.956;30.234;2023-05-14T08:03:18;5.10;;;3.42;;
78854;SDS011;68206;59.956;30.234;2023-05-14T08:05:47;7.45;;;3.50;;
78854;SDS011;68206;59.956;30.234;2023-05-14T08:08:15;7.65;;;3.95;;
78854;SDS011;68206;59.956;30.234;2023-05-14T08:10:43;9.65;;;3.53;;
78854;SDS011;68206;59.956;30.234;2023-05-14T08:13:11;7.47;;;3.50;;
78854;SDS011;68206;59.956;30.234;2023-05-14T08:15:40;6.72;;;3.53;;
78854;SDS011;68206;59.956;30.234;2023-05-14T08:18:08;12.20;;;3.53;;
78854;SDS011;68206;59.956;30.234;2023-05-14T08:20:37;7.70;;;3.50;;
78854;SDS011;68206;59.956;30.234;2023-05-14T08:23:05;10.13;;;3.42;;
78854;SDS011;68206;59.956;30.234;2023-05-14T08:25:33;6.20;;;3.53;;
78854;SDS011;68206;59.956;30.234;2023-05-14T08:28:02;6.47;;;3.00;;
78854;SDS011;68206;59.956;30.234;2023-05-14T08:30:30;12.60;;;4.00;;
78854;SDS011;68206;59.956;30.234;2023-05-14T08:33:00;13.90;;;3.55;;
78854;SDS011;68206;59.956;30.234;2023-05-14T08:35:28;12.93;;;3.38;;
78854;SDS011;68206;59.956;30.234;2023-05-14T08:37:56;10.40;;;2.88;;
78854;SDS011;68206;59.956;30.234;2023-05-14T08:40:24;5.88;;;3.00;;
78854;SDS011;68206;59.956;30.234;2023-05-14T08:42:53;10.05;;;3.00;;
78854;SDS011;68206;59.956;30.234;2023-05-14T08:45:25;5.47;;;2.95;;
78854;SDS011;68206;59.956;30.234;2023-05-14T08:47:56;8.10;;;2.88;;
78854;SDS011;68206;59.956;30.234;2023-05-14T08:50:27;7.53;;;3.00;;
78854;SDS011;68206;59.956;30.234;2023-05-14T08:52:56;10.10;;;2.67;;
78854;SDS011;68206;59.956;30.234;2023-05-14T08:55:25;12.85;;;3.20;;
78854;SDS011;68206;59.956;30.234;2023-05-14T08:57:54;10.85;;;3.75;;
78854;SDS011;68206;59.956;30.234;2023-05-14T09:00:22;6.10;;;2.78;;
78854;SDS011;68206;59.956;30.234;2023-05-14T09:02:52;12.00;;;3.35;;
78854;SDS011;68206;59.956;30.234;2023-05-14T09:05:21;10.50;;;3.10;;
78854;SDS011;68206;59.956;30.234;2023-05-14T09:07:52;6.82;;;2.63;;
78854;SDS011;68206;59.956;30.234;2023-05-14T09:10:20;10.77;;;2.90;;
78854;SDS011;68206;59.956;30.234;2023-05-14T09:12:48;6.22;;;2.70;;
78854;SDS011;68206;59.956;30.234;2023-05-14T09:15:17;11.18;;;6.40;;
78854;SDS011;68206;59.956;30.234;2023-05-14T09:17:45;10.55;;;4.80;;
78854;SDS011;68206;59.956;30.234;2023-05-14T09:20:14;6.78;;;3.72;;
78854;SDS011;68206;59.956;30.234;2023-05-14T09:22:43;9.68;;;3.42;;
78854;SDS011;68206;59.956;30.234;2023-05-14T09:25:12;8.95;;;3.50;;
78854;SDS011;68206;59.956;30.234;2023-05-14T09:27:40;15.88;;;5.93;;
78854;SDS011;68206;59.956;30.234;2023-05-14T09:30:09;14.32;;;4.00;;
78854;SDS011;68206;59.956;30.234;2023-05-14T09:32:39;8.63;;;3.40;;
78854;SDS011;68206;59.956;30.234;2023-05-14T09:35:10;14.95;;;4.30;;
78854;SDS011;68206;59.956;30.234;2023-05-14T09:37:40;10.05;;;3.28;;
78854;SDS011;68206;59.956;30.234;2023-05-14T09:40:09;14.23;;;4.30;;
78854;SDS011;68206;59.956;30.234;2023-05-14T09:42:39;11.73;;;4.72;;
78854;SDS011;68206;59.956;30.234;2023-05-14T09:45:07;12.15;;;3.25;;
78854;SDS011;68206;59.956;30.234;2023-05-14T09:47:37;8.93;;;3.58;;
78854;SDS011;68206;59.956;30.234;2023-05-14T09:50:06;6.53;;;4.00;;
78854;SDS011;68206;59.956;30.234;2023-05-14T09:52:35;9.93;;;3.13;;
78854;SDS011;68206;59.956;30.234;2023-05-14T09:55:04;9.02;;;3.20;;
78854;SDS011;68206;59.956;30.234;2023-05-14T09:57:33;10.52;;;3.90;;
78854;SDS011;68206;59.956;30.234;2023-05-14T10:00:03;7.90;;;3.25;;
78854;SDS011;68206;59.956;30.234;2023-05-14T10:02:35;12.95;;;4.15;;
78854;SDS011;68206;59.956;30.234;2023-05-14T10:05:06;8.10;;;2.88;;
78854;SDS011;68206;59.956;30.234;2023-05-14T10:07:37;11.77;;;3.78;;
78854;SDS011;68206;59.956;30.234;2023-05-14T10:10:07;8.98;;;3.08;;
78854;SDS011;68206;59.956;30.234;2023-05-14T10:12:40;8.85;;;2.95;;
78854;SDS011;68206;59.956;30.234;2023-05-14T10:15:15;5.55;;;3.22;;
78854;SDS011;68206;59.956;30.234;2023-05-14T10:17:47;7.13;;;2.90;;
78854;SDS011;68206;59.956;30.234;2023-05-14T10:20:20;11.52;;;3.22;;
78854;SDS011;68206;59.956;30.234;2023-05-14T10:22:50;5.18;;;3.13;;
78854;SDS011;68206;59.956;30.234;2023-05-14T10:25:19;9.18;;;2.70;;
78854;SDS011;68206;59.956;30.234;2023-05-14T10:27:47;7.68;;;2.90;;
78854;SDS011;68206;59.956;30.234;2023-05-14T10:30:19;6.90;;;2.67;;
78854;SDS011;68206;59.956;30.234;2023-05-14T10:35:17;7.35;;;3.25;;
78854;SDS011;68206;59.956;30.234;2023-05-14T10:37:51;7.18;;;2.70;;
78854;SDS011;68206;59.956;30.234;2023-05-14T10:40:19;5.82;;;2.78;;
78854;SDS011;68206;59.956;30.234;2023-05-14T10:42:51;11.13;;;2.95;;
78854;SDS011;68206;59.956;30.234;2023-05-14T10:45:23;6.55;;;3.30;;
78854;SDS011;68206;59.956;30.234;2023-05-14T10:47:51;4.03;;;2.40;;
78854;SDS011;68206;59.956;30.234;2023-05-14T10:50:20;8.52;;;2.92;;
78854;SDS011;68206;59.956;30.234;2023-05-14T10:52:49;12.30;;;3.08;;
78854;SDS011;68206;59.956;30.234;2023-05-14T10:55:18;8.55;;;3.45;;
78854;SDS011;68206;59.956;30.234;2023-05-14T10:57:48;5.60;;;3.20;;
78854;SDS011;68206;59.956;30.234;2023-05-14T11:00:18;4.88;;;2.35;;
78854;SDS011;68206;59.956;30.234;2023-05-14T11:02:48;12.80;;;3.25;;
78854;SDS011;68206;59.956;30.234;2023-05-14T11:05:17;6.22;;;3.10;;
78854;SDS011;68206;59.956;30.234;2023-05-14T11:07:45;6.85;;;2.80;;
78854;SDS011;68206;59.956;30.234;2023-05-14T11:10:15;6.95;;;2.70;;
78854;SDS011;68206;59.956;30.234;2023-05-14T11:12:45;6.57;;;2.60;;
78854;SDS011;68206;59.956;30.234;2023-05-14T11:15:15;8.18;;;2.58;;
78854;SDS011;68206;59.956;30.234;2023-05-14T11:17:44;8.98;;;2.90;;
78854;SDS011;68206;59.956;30.234;2023-05-14T11:20:15;6.97;;;2.58;;
78854;SDS011;68206;59.956;30.234;2023-05-14T11:22:45;7.20;;;2.83;;
78854;SDS011;68206;59.956;30.234;2023-05-14T11:25:14;6.82;;;2.38;;
78854;SDS011;68206;59.956;30.234;2023-05-14T11:27:45;5.00;;;2.90;;
78854;SDS011;68206;59.956;30.234;2023-05-14T11:30:14;4.72;;;2.60;;
78854;SDS011;68206;59.956;30.234;2023-05-14T11:32:43;7.10;;;2.90;;
78854;SDS011;68206;59.956;30.234;2023-05-14T11:35:12;6.25;;;2.33;;
78854;SDS011;68206;59.956;30.234;2023-05-14T11:37:42;5.38;;;2.97;;
78854;SDS011;68206;59.956;30.234;2023-05-14T11:40:15;6.50;;;2.63;;
78854;SDS011;68206;59.956;30.234;2023-05-14T11:42:44;4.38;;;2.80;;
78854;SDS011;68206;59.956;30.234;2023-05-14T11:45:13;5.30;;;3.13;;
78854;SDS011;68206;59.956;30.234;2023-05-14T11:47:51;7.07;;;2.83;;
78854;SDS011;68206;59.956;30.234;2023-05-14T11:50:19;7.78;;;2.90;;
78854;SDS011;68206;59.956;30.234;2023-05-14T11:52:50;7.65;;;2.72;;
78854;SDS011;68206;59.956;30.234;2023-05-14T11:55:23;13.82;;;2.92;;
78854;SDS011;68206;59.956;30.234;2023-05-14T11:57:51;6.93;;;2.67;;
78854;SDS011;68206;59.956;30.234;2023-05-14T12:00:20;9.13;;;2.83;;
78854;SDS011;68206;59.956;30.234;2023-05-14T12:02:50;5.68;;;2.78;;
78854;SDS011;68206;59.956;30.234;2023-05-14T12:05:19;5.45;;;2.70;;
78854;SDS011;68206;59.956;30.234;2023-05-14T12:07:47;5.65;;;2.67;;
78854;SDS011;68206;59.956;30.234;2023-05-14T12:10:16;6.70;;;2.70;;
78854;SDS011;68206;59.956;30.234;2023-05-14T12:12:45;5.57;;;2.90;;
78854;SDS011;68206;59.956;30.234;2023-05-14T12:15:15;8.70;;;3.35;;
78854;SDS011;68206;59.956;30.234;2023-05-14T12:17:48;6.95;;;3.13;;
78854;SDS011;68206;59.956;30.234;2023-05-14T12:20:17;8.00;;;3.00;;
78854;SDS011;68206;59.956;30.234;2023-05-14T12:22:45;5.40;;;3.53;;
78854;SDS011;68206;59.956;30.234;2023-05-14T12:25:13;10.27;;;2.58;;
78854;SDS011;68206;59.956;30.234;2023-05-14T12:27:44;4.18;;;2.53;;
78854;SDS011;68206;59.956;30.234;2023-05-14T12:30:12;7.07;;;3.53;;
78854;SDS011;68206;59.956;30.234;2023-05-14T12:32:43;5.07;;;3.15;;
78854;SDS011;68206;59.956;30.234;2023-05-14T12:35:12;5.55;;;2.75;;
78854;SDS011;68206;59.956;30.234;2023-05-14T12:37:40;4.53;;;2.72;;
78854;SDS011;68206;59.956;30.234;2023-05-14T12:40:08;7.75;;;2.90;;
78854;SDS011;68206;59.956;30.234;2023-05-14T12:42:37;5.03;;;2.65;;
78854;SDS011;68206;59.956;30.234;2023-05-14T12:45:07;4.75;;;2.63;;
78854;SDS011;68206;59.956;30.234;2023-05-14T12:47:35;6.20;;;2.60;;
78854;SDS011;68206;59.956;30.234;2023-05-14T12:50:04;4.82;;;2.60;;
78854;SDS011;68206;59.956;30.234;2023-05-14T12:52:33;4.60;;;3.10;;
78854;SDS011;68206;59.956;30.234;2023-05-14T12:55:05;4.93;;;2.50;;
78854;SDS011;68206;59.956;30.234;2023-05-14T12:57:35;4.60;;;2.80;;
78854;SDS011;68206;59.956;30.234;2023-05-14T13:00:05;5.55;;;2.22;;
78854;SDS011;68206;59.956;30.234;2023-05-14T13:02:46;4.15;;;2.50;;
78854;SDS011;68206;59.956;30.234;2023-05-14T13:05:14;7.90;;;2.67;;
78854;SDS011;68206;59.956;30.234;2023-05-14T13:07:42;5.70;;;2.80;;
78854;SDS011;68206;59.956;30.234;2023-05-14T13:10:11;4.10;;;2.35;;
78854;SDS011;68206;59.956;30.234;2023-05-14T13:12:39;5.47;;;2.55;;
78854;SDS011;68206;59.956;30.234;2023-05-14T13:15:09;8.13;;;2.75;;
78854;SDS011;68206;59.956;30.234;2023-05-14T13:17:37;8.18;;;2.67;;
78854;SDS011;68206;59.956;30.234;2023-05-14T13:20:07;8.68;;;2.72;;
78854;SDS011;68206;59.956;30.234;2023-05-14T13:22:35;7.55;;;2.80;;
78854;SDS011;68206;59.956;30.234;2023-05-14T13:25:04;5.63;;;2.28;;
78854;SDS011;68206;59.956;30.234;2023-05-14T13:27:32;8.70;;;2.72;;
78854;SDS011;68206;59.956;30.234;2023-05-14T13:30:01;6.32;;;2.70;;
78854;SDS011;68206;59.956;30.234;2023-05-14T13:32:31;4.00;;;2.60;;
78854;SDS011;68206;59.956;30.234;2023-05-14T13:34:59;9.57;;;2.58;;
78854;SDS011;68206;59.956;30.234;2023-05-14T13:37:29;6.80;;;2.80;;
78854;SDS011;68206;59.956;30.234;2023-05-14T13:39:57;7.38;;;2.90;;
78854;SDS011;68206;59.956;30.234;2023-05-14T13:42:25;5.65;;;2.92;;
78854;SDS011;68206;59.956;30.234;2023-05-14T13:44:53;12.52;;;3.25;;
78854;SDS011;68206;59.956;30.234;2023-05-14T13:47:21;7.40;;;2.92;;
78854;SDS011;68206;59.956;30.234;2023-05-14T13:49:52;8.27;;;2.67;;
78854;SDS011;68206;59.956;30.234;2023-05-14T13:52:20;7.93;;;3.20;;
78854;SDS011;68206;59.956;30.234;2023-05-14T13:54:48;8.70;;;3.17;;
78854;SDS011;68206;59.956;30.234;2023-05-14T13:57:16;4.70;;;3.13;;
78854;SDS011;68206;59.956;30.234;2023-05-14T13:59:44;6.65;;;2.83;;
78854;SDS011;68206;59.956;30.234;2023-05-14T14:02:13;9.65;;;3.03;;
78854;SDS011;68206;59.956;30.234;2023-05-14T14:04:41;4.30;;;2.80;;
78854;SDS011;68206;59.956;30.234;2023-05-14T14:07:11;9.18;;;3.47;;
78854;SDS011;68206;59.956;30.234;2023-05-14T14:09:39;7.28;;;2.95;;
78854;SDS011;68206;59.956;30.234;2023-05-14T14:12:07;6.18;;;2.70;;
78854;SDS011;68206;59.956;30.234;2023-05-14T14:14:36;7.30;;;2.95;;
78854;SDS011;68206;59.956;30.234;2023-05-14T14:17:04;4.97;;;2.58;;
78854;SDS011;68206;59.956;30.234;2023-05-14T14:19:32;4.03;;;2.53;;
78854;SDS011;68206;59.956;30.234;2023-05-14T14:22:00;6.50;;;3.13;;
78854;SDS011;68206;59.956;30.234;2023-05-14T14:24:29;4.15;;;2.67;;
78854;SDS011;68206;59.956;30.234;2023-05-14T14:26:57;5.85;;;2.78;;
78854;SDS011;68206;59.956;30.234;2023-05-14T14:29:27;5.25;;;2.90;;
78854;SDS011;68206;59.956;30.234;2023-05-14T14:31:56;6.82;;;2.80;;
78854;SDS011;68206;59.956;30.234;2023-05-14T14:34:25;4.93;;;2.80;;
78854;SDS011;68206;59.956;30.234;2023-05-14T14:36:53;8.40;;;2.85;;
78854;SDS011;68206;59.956;30.234;2023-05-14T14:39:21;4.97;;;2.75;;
78854;SDS011;68206;59.956;30.234;2023-05-14T14:41:52;6.88;;;2.70;;